createdAt,value
2023-01-31T00:00:49.928Z,99.90
2023-01-31T00:03:20.017Z,99.90
2023-01-31T00:05:48.789Z,99.90
2023-01-31T00:08:18.617Z,99.90
2023-01-31T00:10:47.225Z,99.90
2023-01-31T00:13:15.799Z,99.90
2023-01-31T00:15:44.399Z,99.90
2023-01-31T00:18:13.018Z,99.90
2023-01-31T00:20:52.383Z,99.90
2023-01-31T00:23:21.962Z,99.90
2023-01-31T00:25:50.777Z,99.90
2023-01-31T00:28:19.393Z,99.90
2023-01-31T00:30:48.013Z,99.90
2023-01-31T00:33:17.806Z,99.90
2023-01-31T00:35:47.824Z,99.90
2023-01-31T00:38:16.491Z,99.90
2023-01-31T00:40:53.734Z,99.90
2023-01-31T00:43:22.555Z,99.90
2023-01-31T00:45:51.148Z,99.90
2023-01-31T00:48:19.947Z,99.90
2023-01-31T00:50:49.961Z,99.90
2023-01-31T00:53:23.526Z,99.90
2023-01-31T00:55:52.622Z,99.90
2023-01-31T00:58:22.143Z,99.90
2023-01-31T01:00:51.752Z,99.90
2023-01-31T01:03:20.468Z,99.90
2023-01-31T01:05:50.514Z,99.90
2023-01-31T01:08:19.159Z,99.90
2023-01-31T01:10:48.383Z,99.90
2023-01-31T01:13:17.001Z,99.90
2023-01-31T01:15:45.631Z,99.90
2023-01-31T01:18:14.271Z,99.90
2023-01-31T01:20:42.813Z,99.90
2023-01-31T01:23:12.784Z,99.90
2023-01-31T01:25:45.647Z,99.90
2023-01-31T01:28:14.288Z,99.90
2023-01-31T01:30:42.901Z,99.90
2023-01-31T01:33:11.523Z,99.90
2023-01-31T01:35:40.139Z,99.90
2023-01-31T01:38:08.789Z,99.90
2023-01-31T01:40:39.877Z,99.90
2023-01-31T01:43:13.133Z,99.90
2023-01-31T01:45:42.082Z,99.90
2023-01-31T01:48:18.791Z,99.90
2023-01-31T01:50:50.828Z,99.90
2023-01-31T01:53:22.065Z,99.90
2023-01-31T01:55:55.133Z,99.90
2023-01-31T01:58:29.036Z,99.90
2023-01-31T02:00:57.939Z,99.90
2023-01-31T02:03:27.311Z,99.90
2023-01-31T02:05:59.652Z,99.90
2023-01-31T02:08:32.077Z,99.90
2023-01-31T02:11:07.056Z,99.90
2023-01-31T02:13:36.918Z,99.90
2023-01-31T02:16:05.809Z,99.90
2023-01-31T02:18:34.714Z,99.90
2023-01-31T02:21:32.611Z,99.90
2023-01-31T02:24:30.612Z,99.90
2023-01-31T02:27:28.061Z,99.90
2023-01-31T02:30:27.638Z,99.90
2023-01-31T02:33:09.043Z,99.90
2023-01-31T02:35:52.260Z,99.90
2023-01-31T02:38:31.486Z,99.90
2023-01-31T02:41:07.556Z,99.90
2023-01-31T02:44:15.126Z,99.90
2023-01-31T02:46:51.883Z,99.90
2023-01-31T02:49:35.705Z,99.90
2023-01-31T02:52:20.432Z,99.90
2023-01-31T02:55:19.116Z,99.90
2023-01-31T02:57:50.669Z,99.90
2023-01-31T03:00:21.183Z,99.90
2023-01-31T03:02:49.897Z,99.90
2023-01-31T03:05:23.208Z,99.90
2023-01-31T03:07:54.555Z,99.90
2023-01-31T03:10:57.536Z,99.90
2023-01-31T03:13:36.972Z,99.90
2023-01-31T03:16:36.545Z,99.90
2023-01-31T03:19:14.114Z,99.90
2023-01-31T03:21:48.781Z,99.90
2023-01-31T03:24:19.427Z,99.90
2023-01-31T03:26:49.224Z,99.90
2023-01-31T03:29:18.710Z,99.90
2023-01-31T03:31:55.135Z,99.90
2023-01-31T03:34:26.096Z,99.90
2023-01-31T03:37:00.251Z,99.90
2023-01-31T03:39:46.040Z,99.90
2023-01-31T03:42:20.747Z,99.90
2023-01-31T03:44:57.178Z,99.90
2023-01-31T03:47:30.264Z,99.90
2023-01-31T03:50:03.797Z,99.90
2023-01-31T03:52:38.653Z,99.90
2023-01-31T03:55:14.844Z,99.90
2023-01-31T03:57:46.641Z,99.90
2023-01-31T04:00:16.872Z,99.90
2023-01-31T04:02:55.168Z,99.90
2023-01-31T04:05:32.305Z,99.90
2023-01-31T04:08:07.386Z,99.90
2023-01-31T04:10:36.898Z,99.90
2023-01-31T04:13:05.577Z,99.90
2023-01-31T04:15:34.395Z,99.90
2023-01-31T04:18:03.033Z,99.90
2023-01-31T04:20:32.028Z,99.90
2023-01-31T04:23:00.769Z,99.90
2023-01-31T04:25:32.790Z,99.90
2023-01-31T04:28:03.671Z,99.90
2023-01-31T04:30:32.510Z,99.90
2023-01-31T04:33:01.700Z,99.90
2023-01-31T04:35:32.038Z,99.90
2023-01-31T04:38:01.555Z,99.90
2023-01-31T04:40:31.802Z,99.90
2023-01-31T04:43:00.424Z,99.90
2023-01-31T04:45:29.029Z,99.90
2023-01-31T04:47:57.703Z,99.90
2023-01-31T04:50:27.501Z,99.90
2023-01-31T04:52:56.153Z,99.90
2023-01-31T04:55:24.915Z,99.90
2023-01-31T04:57:54.968Z,99.90
2023-01-31T05:00:23.968Z,99.90
2023-01-31T05:02:53.179Z,99.90
2023-01-31T05:05:22.088Z,99.90
2023-01-31T05:07:50.862Z,99.90
2023-01-31T05:10:19.770Z,99.90
2023-01-31T05:12:48.819Z,99.90
2023-01-31T05:15:19.271Z,99.90
2023-01-31T05:17:54.565Z,99.90
2023-01-31T05:20:23.264Z,99.90
2023-01-31T05:22:51.846Z,99.90
2023-01-31T05:25:20.817Z,99.90
2023-01-31T05:27:49.589Z,99.90
2023-01-31T05:30:20.251Z,99.90
2023-01-31T05:32:50.039Z,99.90
2023-01-31T05:35:19.211Z,99.90
2023-01-31T05:37:47.992Z,99.90
2023-01-31T05:40:18.829Z,99.90
2023-01-31T05:42:55.027Z,99.90
2023-01-31T05:45:25.326Z,99.90
2023-01-31T05:47:55.622Z,99.90
2023-01-31T05:50:24.581Z,99.90
2023-01-31T05:52:54.717Z,99.90
2023-01-31T05:55:23.906Z,99.90
2023-01-31T05:57:54.888Z,99.90
2023-01-31T06:00:25.664Z,99.90
2023-01-31T06:02:58.065Z,99.90
2023-01-31T06:05:26.953Z,99.90
2023-01-31T06:07:55.628Z,99.90
2023-01-31T06:10:24.436Z,99.90
2023-01-31T06:12:53.073Z,99.90
2023-01-31T06:15:21.962Z,99.90
2023-01-31T06:17:52.256Z,99.90
2023-01-31T06:20:21.064Z,99.90
2023-01-31T06:22:50.181Z,99.90
2023-01-31T06:25:19.609Z,99.90
2023-01-31T06:27:48.409Z,99.90
2023-01-31T06:30:17.099Z,99.90
2023-01-31T06:32:45.673Z,99.90
2023-01-31T06:35:15.845Z,99.90
2023-01-31T06:37:44.395Z,99.90
2023-01-31T06:40:13.844Z,99.90
2023-01-31T06:42:42.611Z,99.90
2023-01-31T06:45:12.126Z,99.90
2023-01-31T06:47:40.729Z,99.90
2023-01-31T06:50:10.986Z,99.90
2023-01-31T06:52:41.118Z,99.90
2023-01-31T06:55:10.367Z,99.90
2023-01-31T06:57:46.901Z,99.90
2023-01-31T07:00:16.795Z,99.90
2023-01-31T07:02:45.651Z,99.90
2023-01-31T07:05:14.507Z,99.90
2023-01-31T07:07:44.488Z,99.90
2023-01-31T07:10:14.049Z,99.90
2023-01-31T07:12:42.668Z,99.90
2023-01-31T07:15:12.474Z,99.90
2023-01-31T07:17:41.178Z,99.90
2023-01-31T07:20:11.004Z,99.90
2023-01-31T07:22:39.584Z,99.90
2023-01-31T07:25:10.462Z,99.90
2023-01-31T07:27:39.140Z,99.90
2023-01-31T07:30:08.902Z,99.90
2023-01-31T07:32:37.489Z,99.90
2023-01-31T07:35:06.669Z,99.90
2023-01-31T07:37:35.584Z,99.90
2023-01-31T07:40:05.788Z,99.90
2023-01-31T07:42:35.799Z,99.90
2023-01-31T07:45:20.924Z,99.90
2023-01-31T07:47:51.473Z,99.90
2023-01-31T07:50:20.197Z,99.90
2023-01-31T07:52:50.978Z,99.90
2023-01-31T07:55:19.883Z,99.90
2023-01-31T07:57:50.338Z,99.90
2023-01-31T08:00:42.393Z,99.90
2023-01-31T08:03:34.760Z,99.90
2023-01-31T08:06:06.378Z,99.90
2023-01-31T08:08:35.049Z,99.90
2023-01-31T08:11:05.216Z,99.90
2023-01-31T08:13:35.891Z,99.90
2023-01-31T08:16:05.252Z,99.90
2023-01-31T08:18:34.104Z,99.90
2023-01-31T08:21:02.744Z,99.90
2023-01-31T08:23:31.999Z,99.90
2023-01-31T08:26:05.385Z,99.90
2023-01-31T08:28:35.507Z,99.90
2023-01-31T08:31:09.060Z,99.90
2023-01-31T08:33:38.651Z,99.90
2023-01-31T08:36:11.556Z,99.90
2023-01-31T08:38:40.378Z,99.90
2023-01-31T08:41:09.069Z,99.90
2023-01-31T08:43:54.418Z,99.10
2023-01-31T08:46:25.754Z,99.90
2023-01-31T08:48:54.723Z,99.90
2023-01-31T08:51:24.337Z,99.90
2023-01-31T08:53:53.082Z,99.90
2023-01-31T08:56:25.513Z,99.90
2023-01-31T08:58:56.194Z,99.90
2023-01-31T09:01:25.322Z,99.90
2023-01-31T09:03:57.353Z,99.90
2023-01-31T09:06:27.714Z,99.90
2023-01-31T09:08:58.233Z,99.90
2023-01-31T09:11:30.589Z,99.90
2023-01-31T09:14:01.079Z,99.90
2023-01-31T09:16:30.003Z,99.90
2023-01-31T09:18:58.749Z,99.90
2023-01-31T09:21:27.987Z,99.90
2023-01-31T09:23:58.480Z,99.90
2023-01-31T09:26:27.650Z,99.10
2023-01-31T09:28:58.082Z,96.80
2023-01-31T09:31:28.671Z,97.00
2023-01-31T09:33:57.433Z,96.80
2023-01-31T09:36:26.324Z,96.60
2023-01-31T09:38:58.688Z,96.30
2023-01-31T09:41:33.547Z,95.80
2023-01-31T09:44:05.769Z,96.60
2023-01-31T09:46:42.033Z,96.60
2023-01-31T09:49:17.215Z,97.00
2023-01-31T09:51:46.037Z,96.30
2023-01-31T09:54:22.278Z,96.60
2023-01-31T09:57:02.563Z,96.20
2023-01-31T09:59:40.825Z,94.90
2023-01-31T10:02:28.370Z,92.10
2023-01-31T10:05:12.616Z,90.70
2023-01-31T10:07:50.277Z,90.80
2023-01-31T10:10:25.463Z,90.40
2023-01-31T10:12:59.575Z,90.30
2023-01-31T10:15:33.966Z,88.90
2023-01-31T10:18:10.107Z,88.20
2023-01-31T10:20:44.112Z,86.10
2023-01-31T10:23:18.944Z,83.50
2023-01-31T10:25:54.120Z,82.40
2023-01-31T10:28:28.268Z,82.10
2023-01-31T10:31:01.108Z,78.80
2023-01-31T10:33:40.756Z,78.60
2023-01-31T10:36:15.537Z,79.00
2023-01-31T10:38:55.620Z,77.00
2023-01-31T10:41:36.412Z,75.90
2023-01-31T10:44:09.888Z,73.50
2023-01-31T10:46:38.581Z,69.70
2023-01-31T10:49:11.931Z,69.00
2023-01-31T10:51:56.861Z,67.90
2023-01-31T10:54:38.271Z,68.40
2023-01-31T10:57:07.003Z,67.70
2023-01-31T10:59:37.990Z,66.10
2023-01-31T11:02:07.060Z,66.60
2023-01-31T11:04:41.255Z,65.70
2023-01-31T11:07:10.916Z,64.40
2023-01-31T11:09:42.284Z,63.30
2023-01-31T11:12:11.264Z,65.60
2023-01-31T11:14:40.255Z,64.60
2023-01-31T11:17:15.974Z,64.20
2023-01-31T11:19:50.639Z,62.90
2023-01-31T11:22:25.564Z,61.10
2023-01-31T11:24:55.165Z,61.30
2023-01-31T11:27:30.994Z,62.10
2023-01-31T11:30:00.946Z,61.30
2023-01-31T11:32:32.133Z,62.10
2023-01-31T11:35:05.573Z,60.70
2023-01-31T11:37:35.563Z,60.00
2023-01-31T11:40:22.368Z,60.50
2023-01-31T11:42:55.792Z,62.20
2023-01-31T11:45:27.751Z,60.00
2023-01-31T11:47:59.157Z,59.80
2023-01-31T11:50:35.850Z,59.90
2023-01-31T11:53:17.044Z,59.30
2023-01-31T11:55:47.852Z,57.40
2023-01-31T11:58:21.081Z,58.40
2023-01-31T12:00:58.101Z,58.90
2023-01-31T12:03:28.592Z,58.30
2023-01-31T12:06:05.422Z,58.60
2023-01-31T12:08:37.142Z,58.10
2023-01-31T12:11:07.215Z,58.10
2023-01-31T12:13:48.344Z,57.20
2023-01-31T12:16:20.609Z,55.90
2023-01-31T12:19:07.162Z,56.10
2023-01-31T12:21:51.600Z,55.70
2023-01-31T12:24:35.803Z,55.10
2023-01-31T12:27:15.739Z,55.30
2023-01-31T12:30:00.250Z,55.70
2023-01-31T12:32:50.731Z,55.90
2023-01-31T12:35:36.211Z,56.00
2023-01-31T12:38:20.157Z,55.50
2023-01-31T12:40:55.926Z,55.40
2023-01-31T12:43:40.837Z,55.90
2023-01-31T12:46:18.426Z,54.60
2023-01-31T12:49:19.679Z,52.60
2023-01-31T12:51:59.716Z,52.60
2023-01-31T12:54:45.869Z,53.50
2023-01-31T12:57:31.590Z,53.70
2023-01-31T13:00:11.863Z,53.90
2023-01-31T13:02:47.090Z,54.50
2023-01-31T13:05:28.734Z,54.80
2023-01-31T13:08:04.264Z,55.20
2023-01-31T13:10:40.383Z,55.30
2023-01-31T13:13:17.740Z,55.20
2023-01-31T13:15:52.998Z,55.40
2023-01-31T13:18:23.736Z,54.50
2023-01-31T13:20:58.231Z,54.40
2023-01-31T13:23:31.907Z,55.10
2023-01-31T13:26:09.478Z,54.60
2023-01-31T13:28:43.280Z,53.90
2023-01-31T13:31:19.053Z,54.00
2023-01-31T13:33:53.746Z,55.30
2023-01-31T13:36:29.090Z,55.30
2023-01-31T13:38:59.277Z,55.20
2023-01-31T13:41:32.407Z,54.00
2023-01-31T13:44:03.249Z,54.40
2023-01-31T13:46:36.706Z,53.80
2023-01-31T13:49:09.740Z,54.30
2023-01-31T13:51:42.818Z,54.80
2023-01-31T13:54:19.653Z,55.60
2023-01-31T13:56:54.671Z,55.80
2023-01-31T13:59:26.188Z,54.80
2023-01-31T14:01:56.968Z,55.70
2023-01-31T14:04:36.311Z,55.00
2023-01-31T14:07:25.358Z,54.60
2023-01-31T14:10:40.745Z,53.50
2023-01-31T14:13:42.311Z,54.80
2023-01-31T14:16:38.105Z,54.80
2023-01-31T14:19:27.635Z,54.50
2023-01-31T14:22:04.740Z,53.70
2023-01-31T14:25:07.891Z,54.30
2023-01-31T14:27:43.197Z,55.10
2023-01-31T14:30:25.122Z,54.70
2023-01-31T14:33:06.800Z,54.90
2023-01-31T14:35:50.080Z,54.80
2023-01-31T14:38:25.561Z,55.60
2023-01-31T14:41:04.480Z,57.00
2023-01-31T14:43:49.357Z,56.80
2023-01-31T14:46:36.613Z,57.20
2023-01-31T14:49:35.735Z,57.90
2023-01-31T14:52:29.881Z,57.70
2023-01-31T14:55:27.966Z,57.00
2023-01-31T14:58:01.164Z,57.30
2023-01-31T15:00:34.083Z,58.20
2023-01-31T15:03:08.116Z,57.90
2023-01-31T15:05:49.746Z,58.00
2023-01-31T15:08:43.739Z,58.00
2023-01-31T15:11:42.813Z,59.00
2023-01-31T15:14:36.520Z,59.70
2023-01-31T15:17:23.717Z,60.00
2023-01-31T15:20:14.956Z,59.20
2023-01-31T15:22:45.665Z,60.80
2023-01-31T15:25:27.863Z,60.60
2023-01-31T15:27:58.464Z,61.10
2023-01-31T15:30:30.331Z,60.00
2023-01-31T15:33:03.280Z,60.70
2023-01-31T15:35:39.647Z,59.50
2023-01-31T15:38:22.908Z,60.30
2023-01-31T15:41:07.653Z,58.80
2023-01-31T15:43:39.701Z,59.00
2023-01-31T15:46:16.218Z,58.80
2023-01-31T15:48:45.922Z,58.80
2023-01-31T15:51:17.167Z,59.00
2023-01-31T15:53:47.777Z,59.10
2023-01-31T15:56:23.265Z,59.60
2023-01-31T15:58:54.066Z,60.30
2023-01-31T16:01:23.113Z,60.00
2023-01-31T16:03:55.431Z,60.00
2023-01-31T16:06:28.219Z,60.10
2023-01-31T16:09:02.109Z,60.50
2023-01-31T16:11:34.227Z,60.00
2023-01-31T16:14:06.348Z,60.00
2023-01-31T16:16:37.517Z,60.20
2023-01-31T16:19:07.766Z,60.80
2023-01-31T16:21:40.838Z,62.00
2023-01-31T16:24:16.855Z,62.00
2023-01-31T16:26:56.078Z,62.30
2023-01-31T16:29:30.621Z,62.90
2023-01-31T16:31:59.657Z,64.10
2023-01-31T16:34:30.912Z,63.00
2023-01-31T16:37:03.773Z,63.10
2023-01-31T16:39:38.950Z,63.10
2023-01-31T16:42:23.756Z,63.40
2023-01-31T16:44:53.226Z,63.90
2023-01-31T16:47:47.979Z,64.40
2023-01-31T16:50:43.022Z,65.10
2023-01-31T16:53:29.155Z,65.30
2023-01-31T16:56:22.851Z,66.30
2023-01-31T16:58:56.588Z,64.60
2023-01-31T17:01:29.260Z,65.30
2023-01-31T17:04:18.516Z,65.20
2023-01-31T17:06:52.431Z,66.40
2023-01-31T17:09:24.328Z,66.60
2023-01-31T17:11:55.833Z,68.20
2023-01-31T17:14:24.620Z,67.80
2023-01-31T17:16:54.220Z,67.80
2023-01-31T17:19:23.485Z,67.00
2023-01-31T17:21:52.371Z,67.50
2023-01-31T17:24:23.923Z,67.20
2023-01-31T17:26:54.091Z,67.20
2023-01-31T17:29:23.420Z,67.20
2023-01-31T17:31:52.307Z,67.20
2023-01-31T17:34:21.092Z,67.00
2023-01-31T17:36:49.896Z,67.30
2023-01-31T17:39:18.823Z,66.50
2023-01-31T17:41:49.900Z,66.80
2023-01-31T17:44:19.829Z,66.80
2023-01-31T17:46:50.186Z,67.20
2023-01-31T17:49:19.392Z,66.30
2023-01-31T17:51:48.324Z,67.50
2023-01-31T17:54:17.200Z,67.20
2023-01-31T17:56:45.905Z,68.00
2023-01-31T17:59:26.594Z,67.40
2023-01-31T18:01:56.641Z,67.70
2023-01-31T18:04:25.981Z,68.40
2023-01-31T18:06:55.078Z,71.40
2023-01-31T18:09:25.920Z,73.00
2023-01-31T18:11:54.879Z,74.00
2023-01-31T18:14:25.050Z,74.80
2023-01-31T18:16:54.638Z,73.20
2023-01-31T18:19:24.107Z,73.10
2023-01-31T18:21:55.185Z,74.70
2023-01-31T18:24:24.847Z,73.40
2023-01-31T18:26:57.065Z,73.80
2023-01-31T18:29:27.775Z,75.30
2023-01-31T18:31:58.047Z,79.70
2023-01-31T18:34:27.208Z,78.30
2023-01-31T18:36:55.967Z,79.00
2023-01-31T18:39:24.964Z,79.70
2023-01-31T18:41:53.761Z,80.70
2023-01-31T18:44:22.717Z,81.00
2023-01-31T18:46:52.956Z,81.00
2023-01-31T18:49:21.871Z,80.30
2023-01-31T18:51:50.836Z,82.00
2023-01-31T18:54:22.908Z,83.40
2023-01-31T18:56:52.894Z,83.40
2023-01-31T18:59:21.815Z,84.30
2023-01-31T19:01:50.702Z,83.20
2023-01-31T19:04:22.765Z,82.30
2023-01-31T19:06:53.810Z,83.10
2023-01-31T19:09:23.143Z,83.00
2023-01-31T19:11:51.910Z,82.90
2023-01-31T19:14:20.739Z,82.20
2023-01-31T19:16:49.553Z,82.50
2023-01-31T19:19:18.346Z,82.10
2023-01-31T19:21:48.599Z,82.80
2023-01-31T19:24:17.506Z,83.90
2023-01-31T19:26:46.976Z,85.00
2023-01-31T19:29:16.570Z,85.70
2023-01-31T19:31:45.633Z,85.40
2023-01-31T19:34:15.837Z,86.70
2023-01-31T19:36:46.725Z,86.60
2023-01-31T19:39:17.157Z,89.50
2023-01-31T19:41:45.958Z,89.30
2023-01-31T19:44:14.678Z,89.10
2023-01-31T19:46:46.555Z,89.30
2023-01-31T19:49:18.427Z,88.60
2023-01-31T19:51:47.211Z,88.70
2023-01-31T19:54:19.357Z,90.00
2023-01-31T19:56:49.028Z,89.60
2023-01-31T19:59:19.864Z,90.80
2023-01-31T20:01:48.728Z,91.50
2023-01-31T20:04:17.423Z,91.50
2023-01-31T20:06:46.229Z,90.90
2023-01-31T20:09:20.301Z,92.10
2023-01-31T20:11:51.259Z,93.40
2023-01-31T20:14:20.213Z,94.10
2023-01-31T20:16:49.203Z,94.20
2023-01-31T20:19:20.329Z,93.20
2023-01-31T20:21:49.507Z,93.30
2023-01-31T20:24:20.036Z,93.30
2023-01-31T20:26:49.110Z,93.90
2023-01-31T20:29:18.076Z,93.90
2023-01-31T20:31:47.001Z,93.90
2023-01-31T20:34:15.994Z,94.00
2023-01-31T20:36:44.855Z,92.90
2023-01-31T20:39:13.918Z,93.90
2023-01-31T20:41:44.714Z,95.40
2023-01-31T20:44:13.528Z,95.90
2023-01-31T20:46:42.433Z,96.70
2023-01-31T20:49:11.276Z,94.70
2023-01-31T20:51:40.146Z,93.30
2023-01-31T20:54:09.030Z,93.70
2023-01-31T20:56:37.885Z,93.30
2023-01-31T20:59:08.013Z,93.30
2023-01-31T21:01:37.761Z,93.30
2023-01-31T21:04:08.049Z,92.90
2023-01-31T21:06:37.775Z,93.10
2023-01-31T21:09:07.047Z,94.00
2023-01-31T21:11:35.807Z,94.00
2023-01-31T21:14:04.860Z,94.30
2023-01-31T21:16:36.003Z,95.30
2023-01-31T21:19:04.997Z,95.90
2023-01-31T21:21:33.854Z,96.30
2023-01-31T21:24:03.458Z,96.10
2023-01-31T21:26:32.344Z,95.50
2023-01-31T21:29:03.111Z,95.00
2023-01-31T21:31:32.495Z,94.50
2023-01-31T21:34:05.883Z,94.50
2023-01-31T21:36:36.573Z,94.60
2023-01-31T21:39:05.899Z,93.60
2023-01-31T21:41:55.015Z,94.10
2023-01-31T21:44:24.976Z,93.40
2023-01-31T21:46:54.259Z,93.90
2023-01-31T21:49:24.787Z,94.10
2023-01-31T21:51:54.134Z,94.30
2023-01-31T21:54:23.204Z,94.40
2023-01-31T21:56:52.214Z,94.30
2023-01-31T21:59:21.400Z,94.40
2023-01-31T22:01:51.762Z,94.60
2023-01-31T22:04:21.261Z,94.90
2023-01-31T22:06:52.350Z,95.20
2023-01-31T22:09:20.881Z,95.90
2023-01-31T22:11:50.057Z,97.10
2023-01-31T22:14:18.920Z,96.90
2023-01-31T22:16:49.659Z,95.30
2023-01-31T22:19:18.550Z,94.90
2023-01-31T22:21:47.186Z,95.20
2023-01-31T22:24:18.083Z,95.20
2023-01-31T22:26:46.675Z,95.10
2023-01-31T22:29:16.535Z,95.20
2023-01-31T22:31:46.365Z,95.00
2023-01-31T22:34:16.785Z,95.50
2023-01-31T22:36:45.471Z,95.50
2023-01-31T22:39:16.137Z,95.50
2023-01-31T22:41:46.227Z,96.00
2023-01-31T22:44:14.815Z,95.60
2023-01-31T22:46:43.701Z,95.60
2023-01-31T22:49:12.277Z,95.40
2023-01-31T22:51:40.910Z,95.40
2023-01-31T22:54:09.839Z,95.40
2023-01-31T22:56:38.472Z,95.50
2023-01-31T22:59:09.593Z,95.60
2023-01-31T23:01:39.158Z,95.70
2023-01-31T23:04:09.528Z,95.50
2023-01-31T23:06:39.335Z,95.40
2023-01-31T23:09:08.869Z,95.50
2023-01-31T23:11:37.728Z,95.90
2023-01-31T23:14:07.897Z,95.60
2023-01-31T23:16:53.750Z,95.70
2023-01-31T23:19:22.474Z,94.90
2023-01-31T23:21:50.940Z,95.30
2023-01-31T23:24:20.329Z,97.80
2023-01-31T23:26:49.017Z,97.50
2023-01-31T23:29:19.169Z,97.10
2023-01-31T23:31:47.957Z,97.70
2023-01-31T23:34:16.768Z,98.40
2023-01-31T23:36:45.494Z,98.90
2023-01-31T23:39:14.363Z,98.60
2023-01-31T23:41:43.375Z,98.50
2023-01-31T23:44:12.155Z,99.00
2023-01-31T23:46:42.395Z,99.60
2023-01-31T23:49:11.202Z,99.70
2023-01-31T23:51:40.537Z,99.70
2023-01-31T23:54:10.619Z,98.90
2023-01-31T23:56:39.548Z,98.00
2023-01-31T23:59:08.358Z,96.80
